createdAt,value
2018-05-06T00:00:47.793Z,64.16
2018-05-06T00:03:15.281Z,64.30
2018-05-06T00:05:42.827Z,64.58
2018-05-06T00:08:10.632Z,64.99
2018-05-06T00:10:38.075Z,65.02
2018-05-06T00:13:06.488Z,65.36
2018-05-06T00:15:33.880Z,65.03
2018-05-06T00:18:04.844Z,64.74
2018-05-06T00:20:32.237Z,64.37
2018-05-06T00:22:59.862Z,64.10
2018-05-06T00:25:27.251Z,64.13
2018-05-06T00:27:54.654Z,63.60
2018-05-06T00:30:22.051Z,63.21
2018-05-06T00:32:49.439Z,63.30
2018-05-06T00:35:17.197Z,63.25
2018-05-06T00:37:44.571Z,63.38
2018-05-06T00:40:12.300Z,63.77
2018-05-06T00:42:39.696Z,63.83
2018-05-06T00:45:07.924Z,63.93
2018-05-06T00:47:35.327Z,64.24
2018-05-06T00:50:02.733Z,64.33
2018-05-06T00:52:30.376Z,64.42
2018-05-06T00:54:57.767Z,64.32
2018-05-06T00:57:25.147Z,64.26
2018-05-06T00:59:53.478Z,64.26
2018-05-06T01:02:20.860Z,64.29
2018-05-06T01:04:48.247Z,64.51
2018-05-06T01:07:16.319Z,64.75
2018-05-06T01:09:43.719Z,64.79
2018-05-06T01:12:11.124Z,65.02
2018-05-06T01:14:39.263Z,65.02
2018-05-06T01:17:06.651Z,65.22
2018-05-06T01:19:34.121Z,65.51
2018-05-06T01:22:01.885Z,65.58
2018-05-06T01:24:29.267Z,65.58
2018-05-06T01:26:56.665Z,65.80
2018-05-06T01:29:24.040Z,66.11
2018-05-06T01:31:51.445Z,66.37
2018-05-06T01:34:19.761Z,66.70
2018-05-06T01:36:47.160Z,66.75
2018-05-06T01:39:14.540Z,67.11
2018-05-06T01:41:41.940Z,67.03
2018-05-06T01:44:09.402Z,66.70
2018-05-06T01:46:36.805Z,66.64
2018-05-06T01:49:05.155Z,66.85
2018-05-06T01:51:32.814Z,67.03
2018-05-06T01:54:00.261Z,67.31
2018-05-06T01:56:27.663Z,67.05
2018-05-06T01:58:55.552Z,67.15
2018-05-06T02:01:22.953Z,67.45
2018-05-06T02:03:50.345Z,67.50
2018-05-06T02:06:17.858Z,67.37
2018-05-06T02:08:45.244Z,67.54
2018-05-06T02:11:12.636Z,67.83
2018-05-06T02:13:40.550Z,67.92
2018-05-06T02:16:07.948Z,67.96
2018-05-06T02:18:35.764Z,67.74
2018-05-06T02:21:04.073Z,67.79
2018-05-06T02:23:31.452Z,67.92
2018-05-06T02:25:58.845Z,67.84
2018-05-06T02:28:26.239Z,67.90
2018-05-06T02:30:54.529Z,67.75
2018-05-06T02:33:23.158Z,67.98
2018-05-06T02:35:50.563Z,68.18
2018-05-06T02:38:17.936Z,67.98
2018-05-06T02:40:46.284Z,68.35
2018-05-06T02:43:13.675Z,68.37
2018-05-06T02:45:41.060Z,68.42
2018-05-06T02:48:09.158Z,68.48
2018-05-06T02:50:36.528Z,68.57
2018-05-06T02:53:03.929Z,68.52
2018-05-06T02:55:31.316Z,68.62
2018-05-06T02:57:58.718Z,68.73
2018-05-06T03:00:26.098Z,68.95
2018-05-06T03:02:53.489Z,69.60
2018-05-06T03:05:20.875Z,69.60
2018-05-06T03:07:48.266Z,69.49
2018-05-06T03:10:15.656Z,69.22
2018-05-06T03:12:43.039Z,69.28
2018-05-06T03:15:10.428Z,69.37
2018-05-06T03:17:37.830Z,69.73
2018-05-06T03:20:06.340Z,69.70
2018-05-06T03:25:08.058Z,69.78
2018-05-06T03:27:35.468Z,69.92
2018-05-06T03:30:02.857Z,70.48
2018-05-06T03:32:30.256Z,70.51
2018-05-06T03:34:58.608Z,70.32
2018-05-06T03:37:26.016Z,70.49
2018-05-06T03:39:53.393Z,70.27
2018-05-06T03:42:20.772Z,70.33
2018-05-06T03:44:48.615Z,70.33
2018-05-06T03:47:16.583Z,70.84
2018-05-06T03:49:45.795Z,70.63
2018-05-06T03:52:13.184Z,71.31
2018-05-06T03:54:40.589Z,70.76
2018-05-06T03:57:20.042Z,70.74
2018-05-06T04:00:00.101Z,71.28
2018-05-06T04:02:42.368Z,71.09
2018-05-06T04:05:10.677Z,70.93
2018-05-06T04:07:38.046Z,71.24
2018-05-06T04:10:05.743Z,70.90
2018-05-06T04:12:33.142Z,70.91
2018-05-06T04:15:00.555Z,70.42
2018-05-06T04:17:28.232Z,69.70
2018-05-06T04:19:55.622Z,69.00
2018-05-06T04:22:23.008Z,68.45
2018-05-06T04:24:50.408Z,68.00
2018-05-06T04:27:18.227Z,67.58
2018-05-06T04:29:46.439Z,67.67
2018-05-06T04:32:13.833Z,67.54
2018-05-06T04:34:41.223Z,67.23
2018-05-06T04:37:08.611Z,67.10
2018-05-06T04:39:36.008Z,66.92
2018-05-06T04:42:03.385Z,66.80
2018-05-06T04:44:31.397Z,66.75
2018-05-06T04:46:58.788Z,66.38
2018-05-06T04:49:26.167Z,66.49
2018-05-06T04:51:53.721Z,66.06
2018-05-06T04:54:22.015Z,65.92
2018-05-06T04:56:49.391Z,65.82
2018-05-06T04:59:18.295Z,65.34
2018-05-06T05:01:45.671Z,66.12
2018-05-06T05:04:13.058Z,65.38
2018-05-06T05:06:40.499Z,64.80
2018-05-06T05:09:07.872Z,64.57
2018-05-06T05:11:35.306Z,64.42
2018-05-06T05:14:21.611Z,65.40
2018-05-06T05:16:49.407Z,65.21
2018-05-06T05:19:16.887Z,65.13
2018-05-06T05:21:44.295Z,64.65
2018-05-06T05:24:11.691Z,64.34
2018-05-06T05:26:39.145Z,64.31
2018-05-06T05:29:06.574Z,62.83
2018-05-06T05:31:35.263Z,62.42
2018-05-06T05:34:02.708Z,61.68
2018-05-06T05:36:30.154Z,61.01
2018-05-06T05:38:57.594Z,55.73
2018-05-06T05:41:25.079Z,52.43
2018-05-06T05:43:52.554Z,49.77
2018-05-06T05:46:20.000Z,49.56
2018-05-06T05:48:47.442Z,48.49
2018-05-06T05:51:14.835Z,47.74
2018-05-06T05:53:42.219Z,47.36
2018-05-06T05:56:09.620Z,44.95
2018-05-06T05:58:37.341Z,46.72
2018-05-06T06:01:04.740Z,45.80
2018-05-06T06:03:32.121Z,45.67
2018-05-06T06:05:59.513Z,46.62
2018-05-06T06:08:26.901Z,45.13
2018-05-06T06:10:54.542Z,45.61
2018-05-06T06:13:21.920Z,43.52
2018-05-06T06:15:50.111Z,43.07
2018-05-06T06:18:17.515Z,44.42
2018-05-06T06:20:45.032Z,45.22
2018-05-06T06:23:13.889Z,44.48
2018-05-06T06:25:42.089Z,47.63
2018-05-06T06:28:09.517Z,50.05
2018-05-06T06:30:36.995Z,52.33
2018-05-06T06:33:04.520Z,53.48
2018-05-06T06:35:32.828Z,53.38
2018-05-06T06:38:00.328Z,53.15
2018-05-06T06:40:27.849Z,53.46
2018-05-06T06:42:55.935Z,53.68
2018-05-06T06:45:23.290Z,53.59
2018-05-06T06:47:51.680Z,52.76
2018-05-06T06:50:19.134Z,53.65
2018-05-06T06:52:46.580Z,53.98
2018-05-06T06:55:14.950Z,53.51
2018-05-06T06:57:42.513Z,54.71
2018-05-06T07:00:09.883Z,53.30
2018-05-06T07:02:39.029Z,53.22
2018-05-06T07:05:06.434Z,53.50
2018-05-06T07:07:33.880Z,53.36
2018-05-06T07:10:01.356Z,54.23
2018-05-06T07:12:29.169Z,53.04
2018-05-06T07:14:56.555Z,53.04
2018-05-06T07:17:24.019Z,53.77
2018-05-06T07:19:52.603Z,53.24
2018-05-06T07:22:20.060Z,52.86
2018-05-06T07:24:47.508Z,53.87
2018-05-06T07:27:14.897Z,53.49
2018-05-06T07:29:44.461Z,52.26
2018-05-06T07:32:11.864Z,53.22
2018-05-06T07:34:39.245Z,53.28
2018-05-06T07:37:07.967Z,53.16
2018-05-06T07:39:35.450Z,51.73
2018-05-06T07:42:02.906Z,52.46
2018-05-06T07:44:30.367Z,51.92
2018-05-06T07:46:57.822Z,52.61
2018-05-06T07:49:25.966Z,51.56
2018-05-06T07:51:53.652Z,51.44
2018-05-06T07:54:21.111Z,50.95
2018-05-06T07:56:48.569Z,51.27
2018-05-06T07:59:16.522Z,51.20
2018-05-06T08:01:43.977Z,50.37
2018-05-06T08:04:11.466Z,51.53
2018-05-06T08:06:39.604Z,50.18
2018-05-06T08:09:06.996Z,51.30
2018-05-06T08:11:34.383Z,50.54
2018-05-06T08:14:02.622Z,51.46
2018-05-06T08:16:30.062Z,49.72
2018-05-06T08:18:57.444Z,49.74
2018-05-06T08:21:25.824Z,50.42
2018-05-06T08:23:53.371Z,49.63
2018-05-06T08:26:20.856Z,50.61
2018-05-06T08:28:49.223Z,49.53
2018-05-06T08:31:16.706Z,49.41
2018-05-06T08:36:50.802Z,49.37
2018-05-06T08:39:28.517Z,48.40
2018-05-06T08:41:57.871Z,48.16
2018-05-06T08:44:25.601Z,47.36
2018-05-06T08:46:53.009Z,48.18
2018-05-06T08:49:20.616Z,47.61
2018-05-06T08:51:49.476Z,47.41
2018-05-06T08:54:17.328Z,47.17
2018-05-06T08:56:44.714Z,47.25
2018-05-06T08:59:12.100Z,46.95
2018-05-06T09:01:39.498Z,46.82
2018-05-06T09:04:07.806Z,46.91
2018-05-06T09:06:35.171Z,46.50
2018-05-06T09:09:02.559Z,46.95
2018-05-06T09:11:29.956Z,46.39
2018-05-06T09:13:58.254Z,46.57
2018-05-06T09:16:25.652Z,45.78
2018-05-06T09:18:53.423Z,46.59
2018-05-06T09:21:20.811Z,45.76
2018-05-06T09:23:48.798Z,46.02
2018-05-06T09:26:16.163Z,45.58
2018-05-06T09:28:43.571Z,45.43
2018-05-06T09:31:11.167Z,45.80
2018-05-06T09:33:38.550Z,44.69
2018-05-06T09:36:06.244Z,45.02
2018-05-06T09:38:34.281Z,45.00
2018-05-06T09:41:01.674Z,45.50
2018-05-06T09:43:33.179Z,44.02
2018-05-06T09:46:00.586Z,43.46
2018-05-06T09:48:27.971Z,43.81
2018-05-06T09:50:55.359Z,44.13
2018-05-06T09:53:22.755Z,44.19
2018-05-06T09:55:50.155Z,44.14
2018-05-06T09:58:17.893Z,44.18
2018-05-06T10:00:45.274Z,43.79
2018-05-06T10:03:12.656Z,45.01
2018-05-06T10:05:40.971Z,43.15
2018-05-06T10:08:09.257Z,43.11
2018-05-06T10:10:37.167Z,42.60
2018-05-06T10:13:04.560Z,42.74
2018-05-06T10:15:31.967Z,43.14
2018-05-06T10:17:59.342Z,43.38
2018-05-06T10:20:26.750Z,42.37
2018-05-06T10:22:55.273Z,42.93
2018-05-06T10:25:22.669Z,42.15
2018-05-06T10:27:50.072Z,43.18
2018-05-06T10:30:17.543Z,41.37
2018-05-06T10:32:44.935Z,42.19
2018-05-06T10:35:12.610Z,41.50
2018-05-06T10:37:39.996Z,42.83
2018-05-06T10:40:07.416Z,41.27
2018-05-06T10:42:34.872Z,41.23
2018-05-06T10:45:02.258Z,40.97
2018-05-06T10:47:30.412Z,42.20
2018-05-06T10:49:57.795Z,41.07
2018-05-06T10:52:25.184Z,41.04
2018-05-06T10:55:01.465Z,40.60
2018-05-06T10:57:30.189Z,42.11
2018-05-06T10:59:58.662Z,39.47
2018-05-06T11:02:27.244Z,40.85
2018-05-06T11:04:54.640Z,41.22
2018-05-06T11:07:22.037Z,41.20
2018-05-06T11:09:49.505Z,39.59
2018-05-06T11:12:18.226Z,40.51
2018-05-06T11:14:46.319Z,39.66
2018-05-06T11:17:13.724Z,39.89
2018-05-06T11:19:41.124Z,40.21
2018-05-06T11:22:08.527Z,39.76
2018-05-06T11:24:35.920Z,40.24
2018-05-06T11:27:03.359Z,39.75
2018-05-06T11:29:31.085Z,39.83
2018-05-06T11:31:58.539Z,39.59
2018-05-06T11:34:25.927Z,39.44
2018-05-06T11:36:53.351Z,38.88
2018-05-06T11:39:20.797Z,39.82
2018-05-06T11:41:48.180Z,39.34
2018-05-06T11:44:15.577Z,39.60
2018-05-06T11:46:42.963Z,39.24
2018-05-06T11:49:10.380Z,39.07
2018-05-06T11:51:38.676Z,39.71
2018-05-06T11:54:06.071Z,38.72
2018-05-06T11:56:33.505Z,38.50
2018-05-06T11:59:00.972Z,39.48
2018-05-06T12:01:28.634Z,38.86
2018-05-06T12:03:56.244Z,38.34
2018-05-06T12:06:23.632Z,38.42
2018-05-06T12:08:51.062Z,38.79
2018-05-06T12:11:18.483Z,38.38
2018-05-06T12:13:45.875Z,37.65
2018-05-06T12:16:14.152Z,37.76
2018-05-06T12:18:41.556Z,37.97
2018-05-06T12:21:08.939Z,37.49
2018-05-06T12:23:36.338Z,37.29
2018-05-06T12:26:03.990Z,37.98
2018-05-06T12:28:31.750Z,37.52
2018-05-06T12:30:59.152Z,37.84
2018-05-06T12:33:26.539Z,38.05
2018-05-06T12:35:53.930Z,37.21
2018-05-06T12:38:21.327Z,37.53
2018-05-06T12:40:48.709Z,37.07
2018-05-06T12:43:16.193Z,37.24
2018-05-06T12:45:43.699Z,37.56
2018-05-06T12:48:11.090Z,37.44
2018-05-06T12:50:38.496Z,37.01
2018-05-06T12:53:06.002Z,36.82
2018-05-06T12:55:34.364Z,37.38
2018-05-06T12:58:01.816Z,37.11
2018-05-06T13:00:29.251Z,37.32
2018-05-06T13:02:56.715Z,36.49
2018-05-06T13:05:24.164Z,36.48
2018-05-06T13:07:52.033Z,36.54
2018-05-06T13:10:20.423Z,36.32
2018-05-06T13:12:47.796Z,35.97
2018-05-06T13:15:15.428Z,35.26
2018-05-06T13:17:42.820Z,35.50
2018-05-06T13:20:10.251Z,35.42
2018-05-06T13:22:38.836Z,34.78
2018-05-06T13:25:06.301Z,33.83
2018-05-06T13:27:33.744Z,34.30
2018-05-06T13:30:01.217Z,34.06
2018-05-06T13:32:28.688Z,33.08
2018-05-06T13:34:56.811Z,33.75
2018-05-06T13:37:24.775Z,33.25
2018-05-06T13:39:52.179Z,33.36
2018-05-06T13:42:19.707Z,32.81
2018-05-06T13:44:47.104Z,32.87
2018-05-06T13:47:14.854Z,33.10
2018-05-06T13:49:42.264Z,32.61
2018-05-06T13:52:09.669Z,31.55
2018-05-06T13:54:37.064Z,32.16
2018-05-06T13:57:05.321Z,31.74
2018-05-06T13:59:32.708Z,31.32
2018-05-06T14:02:00.093Z,31.30
2018-05-06T14:04:27.478Z,31.30
2018-05-06T14:06:54.923Z,31.89
2018-05-06T14:09:23.495Z,31.28
2018-05-06T22:02:37.772Z,50.30
2018-05-06T22:05:05.177Z,49.19
2018-05-06T22:07:32.613Z,49.43
2018-05-06T22:09:59.955Z,50.67
2018-05-06T22:12:27.326Z,49.97
2018-05-06T22:14:55.250Z,51.10
2018-05-06T22:17:22.633Z,49.94
2018-05-06T22:19:50.028Z,49.49
2018-05-06T22:22:17.446Z,49.35
2018-05-06T22:24:44.807Z,49.03
2018-05-06T22:27:12.196Z,52.14
2018-05-06T22:29:39.587Z,50.25
2018-05-06T22:32:06.990Z,52.28
2018-05-06T22:34:34.412Z,51.49
2018-05-06T22:37:01.792Z,53.62
2018-05-06T22:39:29.960Z,55.46
2018-05-06T22:41:57.347Z,56.64
2018-05-06T22:44:24.740Z,58.28
2018-05-06T22:46:52.123Z,59.23
2018-05-06T22:49:19.506Z,60.39
2018-05-06T22:51:46.930Z,61.04
2018-05-06T22:54:14.286Z,60.89
2018-05-06T22:56:41.677Z,60.62
2018-05-06T22:59:09.064Z,61.28
2018-05-06T23:01:36.455Z,60.75
2018-05-06T23:04:03.839Z,60.21
2018-05-06T23:06:31.231Z,57.70
2018-05-06T23:08:58.623Z,56.88
2018-05-06T23:11:26.026Z,56.48
2018-05-06T23:13:53.403Z,56.87
2018-05-06T23:16:20.862Z,57.82
2018-05-06T23:18:48.195Z,57.56
2018-05-06T23:21:15.591Z,56.79
2018-05-06T23:23:42.992Z,55.69
2018-05-06T23:26:10.371Z,53.00
2018-05-06T23:28:37.757Z,51.70
2018-05-06T23:31:05.143Z,51.19
2018-05-06T23:33:32.537Z,51.46
2018-05-06T23:35:59.922Z,51.71
2018-05-06T23:38:28.128Z,51.17
2018-05-06T23:40:55.528Z,50.77
2018-05-06T23:43:22.925Z,50.96
2018-05-06T23:45:50.317Z,57.35
2018-05-06T23:48:17.700Z,61.89
2018-05-06T23:50:45.100Z,62.76
2018-05-06T23:53:12.489Z,62.96
2018-05-06T23:55:39.906Z,63.86
2018-05-06T23:58:07.268Z,63.55
